sensor_id;sensor_type;location;lat;lon;timestamp;P1;durP1;ratioP1;P2;durP2;ratioP2
11533;SDS011;5823;50.588;8.462;2022-11-20T00:00:04;0.68;;;0.68;;
11533;SDS011;5823;50.588;8.462;2022-11-20T00:02:32;0.70;;;0.70;;
11533;SDS011;5823;50.588;8.462;2022-11-20T00:04:58;0.57;;;0.57;;
11533;SDS011;5823;50.588;8.462;2022-11-20T00:07:25;0.70;;;0.70;;
11533;SDS011;5823;50.588;8.462;2022-11-20T00:09:51;0.70;;;0.52;;
11533;SDS011;5823;50.588;8.462;2022-11-20T00:12:17;0.70;;;0.70;;
11533;SDS011;5823;50.588;8.462;2022-11-20T00:14:43;0.50;;;0.47;;
11533;SDS011;5823;50.588;8.462;2022-11-20T00:17:10;0.57;;;0.52;;
11533;SDS011;5823;50.588;8.462;2022-11-20T00:19:37;0.28;;;0.28;;
11533;SDS011;5823;50.588;8.462;2022-11-20T00:22:04;0.32;;;0.30;;
11533;SDS011;5823;50.588;8.462;2022-11-20T00:24:30;0.60;;;0.60;;
11533;SDS011;5823;50.588;8.462;2022-11-20T00:26:56;0.60;;;0.60;;
11533;SDS011;5823;50.588;8.462;2022-11-20T00:29:22;0.60;;;0.52;;
11533;SDS011;5823;50.588;8.462;2022-11-20T00:31:49;0.88;;;0.88;;
11533;SDS011;5823;50.588;8.462;2022-11-20T00:34:15;0.63;;;0.50;;
11533;SDS011;5823;50.588;8.462;2022-11-20T00:36:42;0.70;;;0.70;;
11533;SDS011;5823;50.588;8.462;2022-11-20T00:39:09;0.75;;;0.73;;
11533;SDS011;5823;50.588;8.462;2022-11-20T00:41:35;0.70;;;0.52;;
11533;SDS011;5823;50.588;8.462;2022-11-20T00:44:01;0.60;;;0.60;;
11533;SDS011;5823;50.588;8.462;2022-11-20T00:46:28;0.80;;;0.73;;
11533;SDS011;5823;50.588;8.462;2022-11-20T00:48:54;0.88;;;0.70;;
11533;SDS011;5823;50.588;8.462;2022-11-20T00:51:21;0.80;;;0.80;;
11533;SDS011;5823;50.588;8.462;2022-11-20T00:53:49;0.50;;;0.50;;
11533;SDS011;5823;50.588;8.462;2022-11-20T00:56:16;0.40;;;0.40;;
11533;SDS011;5823;50.588;8.462;2022-11-20T00:58:43;0.82;;;0.77;;
11533;SDS011;5823;50.588;8.462;2022-11-20T01:01:10;0.80;;;0.80;;
11533;SDS011;5823;50.588;8.462;2022-11-20T01:03:38;1.20;;;1.00;;
11533;SDS011;5823;50.588;8.462;2022-11-20T01:06:05;0.68;;;0.68;;
11533;SDS011;5823;50.588;8.462;2022-11-20T01:08:32;0.63;;;0.63;;
11533;SDS011;5823;50.588;8.462;2022-11-20T01:11:00;0.60;;;0.60;;
11533;SDS011;5823;50.588;8.462;2022-11-20T01:13:27;0.80;;;0.80;;
11533;SDS011;5823;50.588;8.462;2022-11-20T01:16:06;0.98;;;0.88;;
11533;SDS011;5823;50.588;8.462;2022-11-20T01:18:33;0.95;;;0.88;;
11533;SDS011;5823;50.588;8.462;2022-11-20T01:21:00;1.08;;;0.98;;
11533;SDS011;5823;50.588;8.462;2022-11-20T01:23:29;0.60;;;0.60;;
11533;SDS011;5823;50.588;8.462;2022-11-20T01:25:55;0.60;;;0.60;;
11533;SDS011;5823;50.588;8.462;2022-11-20T01:28:23;0.70;;;0.70;;
11533;SDS011;5823;50.588;8.462;2022-11-20T01:30:49;0.50;;;0.50;;
11533;SDS011;5823;50.588;8.462;2022-11-20T01:33:15;0.63;;;0.63;;
11533;SDS011;5823;50.588;8.462;2022-11-20T01:35:42;0.80;;;0.80;;
11533;SDS011;5823;50.588;8.462;2022-11-20T01:38:08;0.60;;;0.60;;
11533;SDS011;5823;50.588;8.462;2022-11-20T01:40:34;0.40;;;0.40;;
11533;SDS011;5823;50.588;8.462;2022-11-20T01:43:06;0.52;;;0.52;;
11533;SDS011;5823;50.588;8.462;2022-11-20T01:48:42;0.43;;;0.43;;
11533;SDS011;5823;50.588;8.462;2022-11-20T01:51:12;0.57;;;0.57;;
11533;SDS011;5823;50.588;8.462;2022-11-20T01:53:39;0.60;;;0.57;;
11533;SDS011;5823;50.588;8.462;2022-11-20T01:56:07;0.52;;;0.50;;
11533;SDS011;5823;50.588;8.462;2022-11-20T01:58:35;0.77;;;0.77;;
11533;SDS011;5823;50.588;8.462;2022-11-20T02:01:03;0.52;;;0.52;;
11533;SDS011;5823;50.588;8.462;2022-11-20T02:03:30;0.70;;;0.70;;
11533;SDS011;5823;50.588;8.462;2022-11-20T02:06:00;0.68;;;0.68;;
11533;SDS011;5823;50.588;8.462;2022-11-20T02:08:28;0.75;;;0.68;;
11533;SDS011;5823;50.588;8.462;2022-11-20T02:10:54;0.60;;;0.60;;
11533;SDS011;5823;50.588;8.462;2022-11-20T02:13:20;0.80;;;0.80;;
11533;SDS011;5823;50.588;8.462;2022-11-20T02:16:04;0.70;;;0.70;;
11533;SDS011;5823;50.588;8.462;2022-11-20T02:18:34;0.38;;;0.38;;
11533;SDS011;5823;50.588;8.462;2022-11-20T02:21:03;0.90;;;0.90;;
11533;SDS011;5823;50.588;8.462;2022-11-20T02:23:32;0.70;;;0.70;;
11533;SDS011;5823;50.588;8.462;2022-11-20T02:26:03;0.65;;;0.65;;
11533;SDS011;5823;50.588;8.462;2022-11-20T02:28:31;0.77;;;0.77;;
11533;SDS011;5823;50.588;8.462;2022-11-20T02:30:58;0.95;;;0.80;;
11533;SDS011;5823;50.588;8.462;2022-11-20T02:33:24;0.75;;;0.75;;
11533;SDS011;5823;50.588;8.462;2022-11-20T02:35:50;0.90;;;0.77;;
11533;SDS011;5823;50.588;8.462;2022-11-20T02:38:16;0.90;;;0.77;;
11533;SDS011;5823;50.588;8.462;2022-11-20T02:40:43;0.75;;;0.75;;
11533;SDS011;5823;50.588;8.462;2022-11-20T02:43:11;0.90;;;0.90;;
11533;SDS011;5823;50.588;8.462;2022-11-20T02:45:37;0.47;;;0.47;;
11533;SDS011;5823;50.588;8.462;2022-11-20T02:48:05;0.55;;;0.52;;
11533;SDS011;5823;50.588;8.462;2022-11-20T02:50:32;0.38;;;0.38;;
11533;SDS011;5823;50.588;8.462;2022-11-20T02:52:58;0.40;;;0.40;;
11533;SDS011;5823;50.588;8.462;2022-11-20T02:55:24;0.57;;;0.52;;
11533;SDS011;5823;50.588;8.462;2022-11-20T02:57:50;0.57;;;0.57;;
11533;SDS011;5823;50.588;8.462;2022-11-20T03:00:18;0.60;;;0.52;;
11533;SDS011;5823;50.588;8.462;2022-11-20T03:02:45;0.60;;;0.60;;
11533;SDS011;5823;50.588;8.462;2022-11-20T03:05:11;0.80;;;0.80;;
11533;SDS011;5823;50.588;8.462;2022-11-20T03:07:37;0.63;;;0.60;;
11533;SDS011;5823;50.588;8.462;2022-11-20T03:10:04;0.45;;;0.45;;
11533;SDS011;5823;50.588;8.462;2022-11-20T03:12:30;0.80;;;0.77;;
11533;SDS011;5823;50.588;8.462;2022-11-20T03:14:56;0.65;;;0.65;;
11533;SDS011;5823;50.588;8.462;2022-11-20T03:17:24;1.00;;;0.80;;
11533;SDS011;5823;50.588;8.462;2022-11-20T03:19:50;0.80;;;0.75;;
11533;SDS011;5823;50.588;8.462;2022-11-20T03:22:16;0.85;;;0.77;;
11533;SDS011;5823;50.588;8.462;2022-11-20T03:24:43;0.75;;;0.75;;
11533;SDS011;5823;50.588;8.462;2022-11-20T03:27:09;0.88;;;0.88;;
11533;SDS011;5823;50.588;8.462;2022-11-20T03:29:35;0.90;;;0.90;;
11533;SDS011;5823;50.588;8.462;2022-11-20T03:32:01;0.47;;;0.47;;
11533;SDS011;5823;50.588;8.462;2022-11-20T03:34:29;0.73;;;0.70;;
11533;SDS011;5823;50.588;8.462;2022-11-20T03:36:55;0.50;;;0.50;;
11533;SDS011;5823;50.588;8.462;2022-11-20T03:39:22;0.40;;;0.40;;
11533;SDS011;5823;50.588;8.462;2022-11-20T03:41:48;0.98;;;0.80;;
11533;SDS011;5823;50.588;8.462;2022-11-20T03:44:14;0.60;;;0.60;;
11533;SDS011;5823;50.588;8.462;2022-11-20T03:46:40;0.60;;;0.60;;
11533;SDS011;5823;50.588;8.462;2022-11-20T03:49:07;0.55;;;0.55;;
11533;SDS011;5823;50.588;8.462;2022-11-20T03:51:35;0.60;;;0.60;;
11533;SDS011;5823;50.588;8.462;2022-11-20T03:54:02;0.70;;;0.70;;
11533;SDS011;5823;50.588;8.462;2022-11-20T03:56:30;0.60;;;0.60;;
11533;SDS011;5823;50.588;8.462;2022-11-20T03:58:57;0.73;;;0.73;;
11533;SDS011;5823;50.588;8.462;2022-11-20T04:01:24;0.40;;;0.40;;
11533;SDS011;5823;50.588;8.462;2022-11-20T04:03:51;0.55;;;0.55;;
11533;SDS011;5823;50.588;8.462;2022-11-20T04:06:18;0.95;;;0.80;;
11533;SDS011;5823;50.588;8.462;2022-11-20T04:08:46;0.77;;;0.77;;
11533;SDS011;5823;50.588;8.462;2022-11-20T04:11:13;0.77;;;0.75;;
11533;SDS011;5823;50.588;8.462;2022-11-20T04:13:40;0.65;;;0.65;;
11533;SDS011;5823;50.588;8.462;2022-11-20T04:16:06;0.80;;;0.80;;
11533;SDS011;5823;50.588;8.462;2022-11-20T04:18:33;0.52;;;0.52;;
11533;SDS011;5823;50.588;8.462;2022-11-20T04:20:59;0.77;;;0.77;;
11533;SDS011;5823;50.588;8.462;2022-11-20T04:23:26;0.40;;;0.40;;
11533;SDS011;5823;50.588;8.462;2022-11-20T04:25:54;0.80;;;0.80;;
11533;SDS011;5823;50.588;8.462;2022-11-20T04:28:20;0.65;;;0.65;;
11533;SDS011;5823;50.588;8.462;2022-11-20T04:30:46;0.57;;;0.55;;
11533;SDS011;5823;50.588;8.462;2022-11-20T04:33:13;0.60;;;0.60;;
11533;SDS011;5823;50.588;8.462;2022-11-20T04:35:39;0.88;;;0.88;;
11533;SDS011;5823;50.588;8.462;2022-11-20T04:38:05;1.10;;;0.80;;
11533;SDS011;5823;50.588;8.462;2022-11-20T04:40:31;1.02;;;0.90;;
11533;SDS011;5823;50.588;8.462;2022-11-20T04:42:59;0.98;;;0.90;;
11533;SDS011;5823;50.588;8.462;2022-11-20T04:45:25;0.63;;;0.60;;
11533;SDS011;5823;50.588;8.462;2022-11-20T04:47:52;1.00;;;0.90;;
11533;SDS011;5823;50.588;8.462;2022-11-20T04:50:18;0.68;;;0.68;;
11533;SDS011;5823;50.588;8.462;2022-11-20T04:52:44;0.80;;;0.80;;
11533;SDS011;5823;50.588;8.462;2022-11-20T04:55:11;0.60;;;0.60;;
11533;SDS011;5823;50.588;8.462;2022-11-20T04:57:37;0.40;;;0.40;;
11533;SDS011;5823;50.588;8.462;2022-11-20T05:00:05;0.70;;;0.70;;
11533;SDS011;5823;50.588;8.462;2022-11-20T05:02:32;0.40;;;0.40;;
11533;SDS011;5823;50.588;8.462;2022-11-20T05:04:58;0.57;;;0.50;;
11533;SDS011;5823;50.588;8.462;2022-11-20T05:07:24;0.60;;;0.60;;
11533;SDS011;5823;50.588;8.462;2022-11-20T05:09:50;0.63;;;0.63;;
11533;SDS011;5823;50.588;8.462;2022-11-20T05:12:17;0.60;;;0.60;;
11533;SDS011;5823;50.588;8.462;2022-11-20T05:14:43;0.65;;;0.65;;
11533;SDS011;5823;50.588;8.462;2022-11-20T05:17:11;0.70;;;0.70;;
11533;SDS011;5823;50.588;8.462;2022-11-20T05:19:37;0.70;;;0.70;;
11533;SDS011;5823;50.588;8.462;2022-11-20T05:22:04;0.88;;;0.88;;
11533;SDS011;5823;50.588;8.462;2022-11-20T05:24:30;0.70;;;0.70;;
11533;SDS011;5823;50.588;8.462;2022-11-20T05:26:56;0.55;;;0.55;;
11533;SDS011;5823;50.588;8.462;2022-11-20T05:29:22;0.55;;;0.55;;
11533;SDS011;5823;50.588;8.462;2022-11-20T05:31:49;0.68;;;0.55;;
11533;SDS011;5823;50.588;8.462;2022-11-20T05:34:16;0.70;;;0.60;;
11533;SDS011;5823;50.588;8.462;2022-11-20T05:36:43;1.17;;;0.95;;
11533;SDS011;5823;50.588;8.462;2022-11-20T05:39:09;1.10;;;1.00;;
11533;SDS011;5823;50.588;8.462;2022-11-20T05:41:35;1.58;;;1.05;;
11533;SDS011;5823;50.588;8.462;2022-11-20T05:44:01;0.70;;;0.70;;
11533;SDS011;5823;50.588;8.462;2022-11-20T05:46:28;0.98;;;0.88;;
11533;SDS011;5823;50.588;8.462;2022-11-20T05:48:54;0.70;;;0.70;;
11533;SDS011;5823;50.588;8.462;2022-11-20T05:51:22;0.60;;;0.60;;
11533;SDS011;5823;50.588;8.462;2022-11-20T05:53:49;0.88;;;0.85;;
11533;SDS011;5823;50.588;8.462;2022-11-20T05:56:16;0.80;;;0.80;;
11533;SDS011;5823;50.588;8.462;2022-11-20T05:58:43;0.77;;;0.73;;
11533;SDS011;5823;50.588;8.462;2022-11-20T06:01:10;0.73;;;0.73;;
11533;SDS011;5823;50.588;8.462;2022-11-20T06:03:37;0.88;;;0.80;;
11533;SDS011;5823;50.588;8.462;2022-11-20T06:06:03;0.63;;;0.63;;
11533;SDS011;5823;50.588;8.462;2022-11-20T06:08:31;1.08;;;0.95;;
11533;SDS011;5823;50.588;8.462;2022-11-20T06:10:58;0.50;;;0.50;;
11533;SDS011;5823;50.588;8.462;2022-11-20T06:13:24;0.60;;;0.60;;
11533;SDS011;5823;50.588;8.462;2022-11-20T06:15:51;0.55;;;0.55;;
11533;SDS011;5823;50.588;8.462;2022-11-20T06:18:18;1.10;;;1.00;;
11533;SDS011;5823;50.588;8.462;2022-11-20T06:20:44;0.85;;;0.75;;
11533;SDS011;5823;50.588;8.462;2022-11-20T06:23:11;0.70;;;0.70;;
11533;SDS011;5823;50.588;8.462;2022-11-20T06:25:39;0.40;;;0.40;;
11533;SDS011;5823;50.588;8.462;2022-11-20T06:28:05;0.88;;;0.70;;
11533;SDS011;5823;50.588;8.462;2022-11-20T06:30:32;0.75;;;0.75;;
11533;SDS011;5823;50.588;8.462;2022-11-20T06:32:58;0.45;;;0.43;;
11533;SDS011;5823;50.588;8.462;2022-11-20T06:35:24;0.47;;;0.47;;
11533;SDS011;5823;50.588;8.462;2022-11-20T06:37:50;0.40;;;0.40;;
11533;SDS011;5823;50.588;8.462;2022-11-20T06:40:17;0.77;;;0.77;;
11533;SDS011;5823;50.588;8.462;2022-11-20T06:42:44;0.75;;;0.75;;
11533;SDS011;5823;50.588;8.462;2022-11-20T06:45:11;1.15;;;1.05;;
11533;SDS011;5823;50.588;8.462;2022-11-20T06:47:37;0.82;;;0.82;;
11533;SDS011;5823;50.588;8.462;2022-11-20T06:50:03;1.08;;;0.98;;
11533;SDS011;5823;50.588;8.462;2022-11-20T06:52:30;0.80;;;0.80;;
11533;SDS011;5823;50.588;8.462;2022-11-20T06:54:56;0.75;;;0.75;;
11533;SDS011;5823;50.588;8.462;2022-11-20T06:57:22;1.13;;;1.02;;
11533;SDS011;5823;50.588;8.462;2022-11-20T06:59:50;1.05;;;0.80;;
11533;SDS011;5823;50.588;8.462;2022-11-20T07:02:16;1.23;;;1.00;;
11533;SDS011;5823;50.588;8.462;2022-11-20T07:04:42;1.17;;;1.08;;
11533;SDS011;5823;50.588;8.462;2022-11-20T07:07:08;0.93;;;0.82;;
11533;SDS011;5823;50.588;8.462;2022-11-20T07:09:35;0.60;;;0.60;;
11533;SDS011;5823;50.588;8.462;2022-11-20T07:12:01;0.70;;;0.70;;
11533;SDS011;5823;50.588;8.462;2022-11-20T07:14:27;1.10;;;1.00;;
11533;SDS011;5823;50.588;8.462;2022-11-20T07:16:55;0.68;;;0.68;;
11533;SDS011;5823;50.588;8.462;2022-11-20T07:19:21;0.88;;;0.77;;
11533;SDS011;5823;50.588;8.462;2022-11-20T07:21:47;1.05;;;0.95;;
11533;SDS011;5823;50.588;8.462;2022-11-20T07:24:14;0.50;;;0.50;;
11533;SDS011;5823;50.588;8.462;2022-11-20T07:26:40;0.73;;;0.73;;
11533;SDS011;5823;50.588;8.462;2022-11-20T07:29:06;1.08;;;0.93;;
11533;SDS011;5823;50.588;8.462;2022-11-20T07:31:32;1.10;;;1.00;;
11533;SDS011;5823;50.588;8.462;2022-11-20T07:34:00;0.73;;;0.70;;
11533;SDS011;5823;50.588;8.462;2022-11-20T07:36:26;0.77;;;0.77;;
11533;SDS011;5823;50.588;8.462;2022-11-20T07:38:53;0.80;;;0.80;;
11533;SDS011;5823;50.588;8.462;2022-11-20T07:41:19;1.33;;;0.98;;
11533;SDS011;5823;50.588;8.462;2022-11-20T07:43:45;1.45;;;1.10;;
11533;SDS011;5823;50.588;8.462;2022-11-20T07:46:11;1.17;;;1.00;;
11533;SDS011;5823;50.588;8.462;2022-11-20T07:48:38;1.02;;;0.90;;
11533;SDS011;5823;50.588;8.462;2022-11-20T07:51:05;0.80;;;0.80;;
11533;SDS011;5823;50.588;8.462;2022-11-20T07:53:31;0.80;;;0.75;;
11533;SDS011;5823;50.588;8.462;2022-11-20T07:55:59;1.02;;;0.93;;
11533;SDS011;5823;50.588;8.462;2022-11-20T07:58:25;1.10;;;1.00;;
11533;SDS011;5823;50.588;8.462;2022-11-20T08:00:51;1.05;;;0.95;;
11533;SDS011;5823;50.588;8.462;2022-11-20T08:03:18;1.23;;;1.00;;
11533;SDS011;5823;50.588;8.462;2022-11-20T08:05:44;1.15;;;0.98;;
11533;SDS011;5823;50.588;8.462;2022-11-20T08:08:11;1.08;;;0.88;;
11533;SDS011;5823;50.588;8.462;2022-11-20T08:10:38;0.80;;;0.73;;
11533;SDS011;5823;50.588;8.462;2022-11-20T08:13:04;1.05;;;0.95;;
11533;SDS011;5823;50.588;8.462;2022-11-20T08:15:48;1.30;;;1.00;;
11533;SDS011;5823;50.588;8.462;2022-11-20T08:18:15;0.93;;;0.60;;
11533;SDS011;5823;50.588;8.462;2022-11-20T08:20:42;1.10;;;1.00;;
11533;SDS011;5823;50.588;8.462;2022-11-20T08:23:08;0.68;;;0.63;;
11533;SDS011;5823;50.588;8.462;2022-11-20T08:25:36;1.30;;;0.90;;
11533;SDS011;5823;50.588;8.462;2022-11-20T08:28:03;1.08;;;0.95;;
11533;SDS011;5823;50.588;8.462;2022-11-20T08:30:30;0.80;;;0.80;;
11533;SDS011;5823;50.588;8.462;2022-11-20T08:33:00;1.23;;;0.95;;
11533;SDS011;5823;50.588;8.462;2022-11-20T08:35:26;1.13;;;0.82;;
11533;SDS011;5823;50.588;8.462;2022-11-20T08:37:53;1.33;;;1.10;;
11533;SDS011;5823;50.588;8.462;2022-11-20T08:40:19;1.15;;;1.00;;
11533;SDS011;5823;50.588;8.462;2022-11-20T08:42:47;1.17;;;1.00;;
11533;SDS011;5823;50.588;8.462;2022-11-20T08:45:14;1.20;;;1.05;;
11533;SDS011;5823;50.588;8.462;2022-11-20T08:47:41;1.13;;;1.00;;
11533;SDS011;5823;50.588;8.462;2022-11-20T08:50:07;1.10;;;0.90;;
11533;SDS011;5823;50.588;8.462;2022-11-20T08:52:34;0.88;;;0.88;;
11533;SDS011;5823;50.588;8.462;2022-11-20T08:55:00;0.63;;;0.63;;
11533;SDS011;5823;50.588;8.462;2022-11-20T08:57:26;1.00;;;0.90;;
11533;SDS011;5823;50.588;8.462;2022-11-20T08:59:54;1.30;;;1.17;;
11533;SDS011;5823;50.588;8.462;2022-11-20T09:02:20;1.70;;;1.60;;
11533;SDS011;5823;50.588;8.462;2022-11-20T09:04:46;1.70;;;1.50;;
11533;SDS011;5823;50.588;8.462;2022-11-20T09:07:13;1.42;;;1.20;;
11533;SDS011;5823;50.588;8.462;2022-11-20T09:09:39;1.08;;;0.98;;
11533;SDS011;5823;50.588;8.462;2022-11-20T09:12:05;1.30;;;1.17;;
11533;SDS011;5823;50.588;8.462;2022-11-20T09:14:31;1.70;;;1.38;;
11533;SDS011;5823;50.588;8.462;2022-11-20T09:17:00;1.60;;;1.17;;
11533;SDS011;5823;50.588;8.462;2022-11-20T09:19:26;1.00;;;0.90;;
11533;SDS011;5823;50.588;8.462;2022-11-20T09:21:52;0.93;;;0.90;;
11533;SDS011;5823;50.588;8.462;2022-11-20T09:24:19;2.03;;;1.52;;
11533;SDS011;5823;50.588;8.462;2022-11-20T09:26:46;1.33;;;0.85;;
11533;SDS011;5823;50.588;8.462;2022-11-20T09:29:12;1.70;;;1.20;;
11533;SDS011;5823;50.588;8.462;2022-11-20T09:31:39;1.20;;;1.10;;
11533;SDS011;5823;50.588;8.462;2022-11-20T09:34:06;0.77;;;0.77;;
11533;SDS011;5823;50.588;8.462;2022-11-20T09:36:33;1.05;;;0.93;;
11533;SDS011;5823;50.588;8.462;2022-11-20T09:38:59;1.10;;;1.00;;
11533;SDS011;5823;50.588;8.462;2022-11-20T09:41:30;1.20;;;0.70;;
11533;SDS011;5823;50.588;8.462;2022-11-20T09:44:01;0.65;;;0.65;;
11533;SDS011;5823;50.588;8.462;2022-11-20T09:46:29;0.77;;;0.70;;
11533;SDS011;5823;50.588;8.462;2022-11-20T09:49:02;1.23;;;1.02;;
11533;SDS011;5823;50.588;8.462;2022-11-20T09:51:35;1.05;;;0.70;;
11533;SDS011;5823;50.588;8.462;2022-11-20T09:54:06;0.77;;;0.70;;
11533;SDS011;5823;50.588;8.462;2022-11-20T09:56:36;1.10;;;0.70;;
11533;SDS011;5823;50.588;8.462;2022-11-20T09:59:04;0.70;;;0.70;;
11533;SDS011;5823;50.588;8.462;2022-11-20T10:01:32;1.00;;;0.77;;
11533;SDS011;5823;50.588;8.462;2022-11-20T10:04:00;0.50;;;0.50;;
11533;SDS011;5823;50.588;8.462;2022-11-20T10:06:28;0.70;;;0.70;;
11533;SDS011;5823;50.588;8.462;2022-11-20T10:08:59;1.30;;;1.05;;
11533;SDS011;5823;50.588;8.462;2022-11-20T10:11:28;1.25;;;1.02;;
11533;SDS011;5823;50.588;8.462;2022-11-20T10:14:00;1.35;;;0.95;;
11533;SDS011;5823;50.588;8.462;2022-11-20T10:16:30;1.20;;;1.02;;
11533;SDS011;5823;50.588;8.462;2022-11-20T10:19:02;1.17;;;1.00;;
11533;SDS011;5823;50.588;8.462;2022-11-20T10:21:35;1.75;;;1.20;;
11533;SDS011;5823;50.588;8.462;2022-11-20T10:24:17;0.90;;;0.90;;
11533;SDS011;5823;50.588;8.462;2022-11-20T10:26:50;1.40;;;1.10;;
11533;SDS011;5823;50.588;8.462;2022-11-20T10:29:18;1.13;;;1.02;;
11533;SDS011;5823;50.588;8.462;2022-11-20T10:31:45;0.93;;;0.80;;
11533;SDS011;5823;50.588;8.462;2022-11-20T10:34:17;0.90;;;0.88;;
11533;SDS011;5823;50.588;8.462;2022-11-20T10:36:46;1.10;;;1.00;;
11533;SDS011;5823;50.588;8.462;2022-11-20T10:39:18;1.13;;;1.02;;
11533;SDS011;5823;50.588;8.462;2022-11-20T10:41:46;1.30;;;1.20;;
11533;SDS011;5823;50.588;8.462;2022-11-20T10:44:15;1.10;;;1.00;;
11533;SDS011;5823;50.588;8.462;2022-11-20T10:47:03;0.63;;;0.55;;
11533;SDS011;5823;50.588;8.462;2022-11-20T10:49:29;0.98;;;0.73;;
11533;SDS011;5823;50.588;8.462;2022-11-20T10:51:58;1.13;;;1.00;;
11533;SDS011;5823;50.588;8.462;2022-11-20T10:54:31;1.10;;;1.00;;
11533;SDS011;5823;50.588;8.462;2022-11-20T10:57:00;1.00;;;0.90;;
11533;SDS011;5823;50.588;8.462;2022-11-20T10:59:35;0.98;;;0.70;;
11533;SDS011;5823;50.588;8.462;2022-11-20T11:02:14;1.13;;;1.02;;
11533;SDS011;5823;50.588;8.462;2022-11-20T11:04:42;0.65;;;0.65;;
11533;SDS011;5823;50.588;8.462;2022-11-20T11:07:10;0.90;;;0.80;;
11533;SDS011;5823;50.588;8.462;2022-11-20T11:09:41;0.90;;;0.63;;
11533;SDS011;5823;50.588;8.462;2022-11-20T11:12:08;0.85;;;0.80;;
11533;SDS011;5823;50.588;8.462;2022-11-20T11:14:42;1.10;;;0.88;;
11533;SDS011;5823;50.588;8.462;2022-11-20T11:17:17;1.00;;;0.90;;
11533;SDS011;5823;50.588;8.462;2022-11-20T11:19:44;1.00;;;0.90;;
11533;SDS011;5823;50.588;8.462;2022-11-20T11:22:12;0.75;;;0.70;;
11533;SDS011;5823;50.588;8.462;2022-11-20T11:24:44;0.57;;;0.52;;
11533;SDS011;5823;50.588;8.462;2022-11-20T11:27:16;0.80;;;0.65;;
11533;SDS011;5823;50.588;8.462;2022-11-20T11:29:43;0.88;;;0.88;;
11533;SDS011;5823;50.588;8.462;2022-11-20T11:32:11;0.63;;;0.63;;
11533;SDS011;5823;50.588;8.462;2022-11-20T11:34:38;1.63;;;1.10;;
11533;SDS011;5823;50.588;8.462;2022-11-20T11:37:04;0.73;;;0.60;;
11533;SDS011;5823;50.588;8.462;2022-11-20T11:39:36;0.88;;;0.70;;
11533;SDS011;5823;50.588;8.462;2022-11-20T11:42:05;0.77;;;0.70;;
11533;SDS011;5823;50.588;8.462;2022-11-20T11:44:33;0.70;;;0.68;;
11533;SDS011;5823;50.588;8.462;2022-11-20T11:47:32;1.00;;;0.90;;
11533;SDS011;5823;50.588;8.462;2022-11-20T11:50:13;1.13;;;1.00;;
11533;SDS011;5823;50.588;8.462;2022-11-20T11:52:41;0.73;;;0.65;;
11533;SDS011;5823;50.588;8.462;2022-11-20T11:55:09;0.98;;;0.68;;
11533;SDS011;5823;50.588;8.462;2022-11-20T11:57:40;0.65;;;0.63;;
11533;SDS011;5823;50.588;8.462;2022-11-20T12:00:09;1.00;;;0.90;;
11533;SDS011;5823;50.588;8.462;2022-11-20T12:02:38;1.10;;;0.98;;
11533;SDS011;5823;50.588;8.462;2022-11-20T12:05:11;1.20;;;0.98;;
11533;SDS011;5823;50.588;8.462;2022-11-20T12:07:39;1.88;;;1.27;;
11533;SDS011;5823;50.588;8.462;2022-11-20T12:10:13;1.60;;;1.08;;
11533;SDS011;5823;50.588;8.462;2022-11-20T12:12:42;1.00;;;0.80;;
11533;SDS011;5823;50.588;8.462;2022-11-20T12:15:10;0.82;;;0.80;;
11533;SDS011;5823;50.588;8.462;2022-11-20T12:17:37;1.00;;;0.80;;
11533;SDS011;5823;50.588;8.462;2022-11-20T12:20:05;1.25;;;0.88;;
11533;SDS011;5823;50.588;8.462;2022-11-20T12:22:33;0.70;;;0.70;;
11533;SDS011;5823;50.588;8.462;2022-11-20T12:25:01;1.10;;;0.93;;
11533;SDS011;5823;50.588;8.462;2022-11-20T12:30:15;1.35;;;1.13;;
11533;SDS011;5823;50.588;8.462;2022-11-20T12:32:51;1.85;;;1.50;;
11533;SDS011;5823;50.588;8.462;2022-11-20T12:35:29;1.33;;;1.20;;
11533;SDS011;5823;50.588;8.462;2022-11-20T12:38:01;1.10;;;1.00;;
11533;SDS011;5823;50.588;8.462;2022-11-20T12:40:34;0.95;;;0.88;;
11533;SDS011;5823;50.588;8.462;2022-11-20T12:43:04;1.17;;;0.90;;
11533;SDS011;5823;50.588;8.462;2022-11-20T12:45:54;1.65;;;0.98;;
11533;SDS011;5823;50.588;8.462;2022-11-20T12:48:30;1.08;;;0.80;;
11533;SDS011;5823;50.588;8.462;2022-11-20T12:51:08;1.33;;;1.13;;
11533;SDS011;5823;50.588;8.462;2022-11-20T12:53:40;1.05;;;0.75;;
11533;SDS011;5823;50.588;8.462;2022-11-20T12:56:12;0.70;;;0.65;;
11533;SDS011;5823;50.588;8.462;2022-11-20T12:58:45;1.45;;;0.88;;
11533;SDS011;5823;50.588;8.462;2022-11-20T13:01:17;1.33;;;1.00;;
11533;SDS011;5823;50.588;8.462;2022-11-20T13:04:01;1.13;;;0.90;;
11533;SDS011;5823;50.588;8.462;2022-11-20T13:06:33;0.90;;;0.90;;
11533;SDS011;5823;50.588;8.462;2022-11-20T13:08:59;0.88;;;0.82;;
11533;SDS011;5823;50.588;8.462;2022-11-20T13:11:27;1.23;;;0.98;;
11533;SDS011;5823;50.588;8.462;2022-11-20T13:14:00;1.38;;;0.93;;
11533;SDS011;5823;50.588;8.462;2022-11-20T13:16:32;2.20;;;1.35;;
11533;SDS011;5823;50.588;8.462;2022-11-20T13:19:01;2.10;;;1.60;;
11533;SDS011;5823;50.588;8.462;2022-11-20T13:21:34;2.20;;;1.30;;
11533;SDS011;5823;50.588;8.462;2022-11-20T13:24:03;1.40;;;1.10;;
11533;SDS011;5823;50.588;8.462;2022-11-20T13:26:30;1.05;;;0.93;;
11533;SDS011;5823;50.588;8.462;2022-11-20T13:29:00;0.88;;;0.80;;
11533;SDS011;5823;50.588;8.462;2022-11-20T13:31:28;1.20;;;1.00;;
11533;SDS011;5823;50.588;8.462;2022-11-20T13:33:57;0.80;;;0.70;;
11533;SDS011;5823;50.588;8.462;2022-11-20T13:36:24;1.40;;;1.10;;
11533;SDS011;5823;50.588;8.462;2022-11-20T13:38:52;0.80;;;0.73;;
11533;SDS011;5823;50.588;8.462;2022-11-20T13:41:23;1.00;;;0.88;;
11533;SDS011;5823;50.588;8.462;2022-11-20T13:43:58;2.88;;;1.85;;
11533;SDS011;5823;50.588;8.462;2022-11-20T13:46:34;2.08;;;1.58;;
11533;SDS011;5823;50.588;8.462;2022-11-20T13:49:05;1.38;;;1.20;;
11533;SDS011;5823;50.588;8.462;2022-11-20T13:51:34;1.08;;;0.98;;
11533;SDS011;5823;50.588;8.462;2022-11-20T13:54:06;1.30;;;1.10;;
11533;SDS011;5823;50.588;8.462;2022-11-20T13:56:34;1.38;;;1.27;;
11533;SDS011;5823;50.588;8.462;2022-11-20T13:59:07;1.50;;;1.20;;
11533;SDS011;5823;50.588;8.462;2022-11-20T14:01:36;1.95;;;1.50;;
11533;SDS011;5823;50.588;8.462;2022-11-20T14:04:07;1.55;;;1.13;;
11533;SDS011;5823;50.588;8.462;2022-11-20T14:06:38;1.30;;;1.10;;
11533;SDS011;5823;50.588;8.462;2022-11-20T14:09:05;3.65;;;2.15;;
11533;SDS011;5823;50.588;8.462;2022-11-20T14:11:36;3.35;;;2.20;;
11533;SDS011;5823;50.588;8.462;2022-11-20T14:14:13;1.90;;;1.40;;
11533;SDS011;5823;50.588;8.462;2022-11-20T14:16:41;1.73;;;1.42;;
11533;SDS011;5823;50.588;8.462;2022-11-20T14:19:27;3.60;;;2.40;;
11533;SDS011;5823;50.588;8.462;2022-11-20T14:22:06;2.15;;;1.52;;
11533;SDS011;5823;50.588;8.462;2022-11-20T14:24:33;2.20;;;1.80;;
11533;SDS011;5823;50.588;8.462;2022-11-20T14:26:59;1.92;;;1.55;;
11533;SDS011;5823;50.588;8.462;2022-11-20T14:29:26;3.20;;;2.20;;
11533;SDS011;5823;50.588;8.462;2022-11-20T14:31:53;1.83;;;1.58;;
11533;SDS011;5823;50.588;8.462;2022-11-20T14:34:21;1.60;;;1.20;;
11533;SDS011;5823;50.588;8.462;2022-11-20T14:36:49;1.10;;;1.00;;
11533;SDS011;5823;50.588;8.462;2022-11-20T14:39:19;1.65;;;1.23;;
11533;SDS011;5823;50.588;8.462;2022-11-20T14:41:49;1.40;;;1.10;;
11533;SDS011;5823;50.588;8.462;2022-11-20T14:44:16;1.38;;;1.10;;
11533;SDS011;5823;50.588;8.462;2022-11-20T14:46:42;1.30;;;1.15;;
11533;SDS011;5823;50.588;8.462;2022-11-20T14:49:09;2.80;;;2.00;;
11533;SDS011;5823;50.588;8.462;2022-11-20T14:51:37;2.03;;;1.23;;
11533;SDS011;5823;50.588;8.462;2022-11-20T14:54:11;1.13;;;1.00;;
11533;SDS011;5823;50.588;8.462;2022-11-20T14:56:38;1.33;;;1.20;;
11533;SDS011;5823;50.588;8.462;2022-11-20T14:59:04;1.23;;;1.13;;
11533;SDS011;5823;50.588;8.462;2022-11-20T15:01:31;1.35;;;1.20;;
11533;SDS011;5823;50.588;8.462;2022-11-20T15:04:02;1.20;;;1.00;;
11533;SDS011;5823;50.588;8.462;2022-11-20T15:06:30;0.80;;;0.77;;
11533;SDS011;5823;50.588;8.462;2022-11-20T15:08:57;2.10;;;1.42;;
11533;SDS011;5823;50.588;8.462;2022-11-20T15:11:27;1.70;;;1.30;;